createdAt,value
2022-12-01T00:01:20.145Z,0.90
2022-12-01T00:03:47.258Z,0.90
2022-12-01T00:06:16.705Z,0.90
2022-12-01T00:09:03.388Z,0.90
2022-12-01T00:11:30.431Z,0.90
2022-12-01T00:13:57.280Z,0.90
2022-12-01T00:16:24.318Z,0.90
2022-12-01T00:18:52.747Z,0.90
2022-12-01T00:21:21.958Z,0.90
2022-12-01T00:23:51.432Z,0.90
2022-12-01T00:26:19.628Z,1.00
2022-12-01T00:28:54.253Z,1.00
2022-12-01T00:31:21.661Z,1.00
2022-12-01T00:33:48.456Z,1.00
2022-12-01T00:36:15.784Z,1.00
2022-12-01T00:38:42.622Z,1.00
2022-12-01T00:41:09.665Z,1.00
2022-12-01T00:43:36.609Z,1.00
2022-12-01T00:46:03.881Z,1.00
2022-12-01T00:48:30.698Z,1.10
2022-12-01T00:50:57.402Z,1.10
2022-12-01T00:53:24.681Z,2.70
2022-12-01T00:55:52.229Z,1.10
2022-12-01T00:58:19.050Z,1.10
2022-12-01T01:00:45.782Z,1.10
2022-12-01T01:03:12.742Z,1.10
2022-12-01T01:05:40.764Z,1.10
2022-12-01T01:08:09.221Z,1.80
2022-12-01T01:10:40.408Z,1.10
2022-12-01T01:13:07.403Z,1.20
2022-12-01T01:15:34.190Z,1.10
2022-12-01T01:18:01.634Z,1.10
2022-12-01T01:20:29.167Z,1.10
2022-12-01T01:22:55.999Z,1.10
2022-12-01T01:25:22.889Z,1.10
2022-12-01T01:27:50.110Z,1.10
2022-12-01T01:30:17.661Z,1.20
2022-12-01T01:32:44.459Z,1.10
2022-12-01T01:35:11.142Z,1.10
2022-12-01T01:37:37.843Z,1.20
2022-12-01T01:40:05.239Z,1.20
2022-12-01T01:42:31.916Z,1.20
2022-12-01T01:44:59.240Z,1.20
2022-12-01T01:47:35.947Z,1.20
2022-12-01T01:50:09.506Z,1.20
2022-12-01T01:52:44.898Z,1.20
2022-12-01T01:55:13.064Z,1.20
2022-12-01T01:57:40.262Z,1.20
2022-12-01T02:00:11.832Z,1.20
2022-12-01T02:02:43.694Z,1.20
2022-12-01T02:05:16.861Z,1.30
2022-12-01T02:07:45.889Z,1.30
2022-12-01T02:10:14.539Z,1.30
2022-12-01T02:13:08.779Z,1.20
2022-12-01T02:15:49.473Z,1.30
2022-12-01T02:18:19.058Z,1.30
2022-12-01T02:21:29.050Z,1.30
2022-12-01T02:24:20.380Z,1.30
2022-12-01T02:27:02.927Z,1.30
2022-12-01T02:29:38.706Z,1.30
2022-12-01T02:32:29.762Z,1.30
2022-12-01T02:35:12.813Z,1.30
2022-12-01T02:37:54.290Z,1.30
2022-12-01T02:40:28.483Z,1.30
2022-12-01T02:43:22.984Z,1.30
2022-12-01T02:46:05.791Z,1.30
2022-12-01T02:48:38.469Z,1.20
2022-12-01T02:51:14.360Z,1.30
2022-12-01T02:53:41.370Z,1.20
2022-12-01T02:56:11.876Z,1.30
2022-12-01T02:58:38.680Z,1.30
2022-12-01T03:01:33.229Z,2.10
2022-12-01T03:04:05.705Z,1.20
2022-12-01T03:06:51.560Z,1.20
2022-12-01T03:09:29.253Z,1.30
2022-12-01T03:12:12.631Z,1.20
2022-12-01T03:14:42.293Z,1.20
2022-12-01T03:17:18.968Z,1.20
2022-12-01T03:19:53.586Z,1.30
2022-12-01T03:22:33.600Z,1.30
2022-12-01T03:25:03.743Z,1.30
2022-12-01T03:27:35.392Z,1.30
2022-12-01T03:30:04.478Z,1.30
2022-12-01T03:32:43.649Z,1.30
2022-12-01T03:35:50.759Z,1.30
2022-12-01T03:38:29.296Z,1.30
2022-12-01T03:41:01.049Z,1.30
2022-12-01T03:43:35.204Z,1.30
2022-12-01T03:46:29.806Z,1.30
2022-12-01T03:48:56.595Z,1.20
2022-12-01T03:51:44.077Z,1.20
2022-12-01T03:54:19.408Z,1.30
2022-12-01T03:56:55.096Z,1.30
2022-12-01T03:59:23.932Z,1.30
2022-12-01T04:01:51.236Z,1.30
2022-12-01T04:04:17.950Z,1.30
2022-12-01T04:06:48.799Z,1.30
2022-12-01T04:09:15.497Z,1.30
2022-12-01T04:12:00.686Z,2.50
2022-12-01T04:14:27.376Z,1.30
2022-12-01T04:16:54.053Z,1.30
2022-12-01T04:19:20.817Z,1.30
2022-12-01T04:21:47.671Z,1.30
2022-12-01T04:24:14.386Z,1.30
2022-12-01T04:26:42.126Z,1.30
2022-12-01T04:29:10.685Z,1.30
2022-12-01T04:31:37.915Z,1.30
2022-12-01T04:34:05.124Z,1.30
2022-12-01T04:36:33.807Z,1.40
2022-12-01T04:39:01.041Z,1.30
2022-12-01T04:41:28.069Z,1.30
2022-12-01T04:43:55.463Z,1.30
2022-12-01T04:46:23.839Z,2.20
2022-12-01T04:48:51.387Z,3.10
2022-12-01T04:51:18.648Z,1.40
2022-12-01T04:53:45.453Z,1.40
2022-12-01T04:56:12.216Z,1.30
2022-12-01T04:58:39.554Z,1.30
2022-12-01T05:01:10.126Z,1.40
2022-12-01T05:03:38.627Z,1.40
2022-12-01T05:06:16.168Z,2.70
2022-12-01T05:08:43.139Z,1.40
2022-12-01T05:11:12.246Z,1.40
2022-12-01T05:13:40.264Z,1.40
2022-12-01T05:16:09.649Z,1.40
2022-12-01T05:18:36.576Z,1.40
2022-12-01T05:21:05.361Z,1.40
2022-12-01T05:23:34.426Z,1.40
2022-12-01T05:26:02.824Z,1.40
2022-12-01T05:28:29.671Z,1.40
2022-12-01T05:30:56.770Z,1.40
2022-12-01T05:33:24.939Z,1.40
2022-12-01T05:35:52.147Z,1.40
2022-12-01T05:38:19.730Z,1.50
2022-12-01T05:40:54.441Z,1.50
2022-12-01T05:43:28.373Z,1.50
2022-12-01T05:45:56.577Z,1.50
2022-12-01T05:48:23.679Z,1.50
2022-12-01T05:50:50.354Z,1.50
2022-12-01T05:53:17.821Z,1.50
2022-12-01T05:55:44.768Z,1.50
2022-12-01T05:58:12.090Z,1.50
2022-12-01T06:00:45.426Z,1.50
2022-12-01T06:03:13.419Z,1.50
2022-12-01T06:05:40.435Z,1.90
2022-12-01T06:08:07.781Z,1.50
2022-12-01T06:10:34.651Z,1.50
2022-12-01T06:13:01.404Z,1.50
2022-12-01T06:15:28.064Z,1.50
2022-12-01T06:17:54.777Z,1.50
2022-12-01T06:20:21.480Z,1.50
2022-12-01T06:22:48.638Z,1.50
2022-12-01T06:25:15.418Z,1.50
2022-12-01T06:27:42.113Z,1.50
2022-12-01T06:30:09.508Z,1.50
2022-12-01T06:32:36.468Z,1.50
2022-12-01T06:35:03.444Z,1.50
2022-12-01T06:37:30.119Z,1.50
2022-12-01T06:39:56.852Z,1.50
2022-12-01T06:42:23.595Z,1.50
2022-12-01T06:44:50.392Z,1.60
2022-12-01T06:47:17.134Z,1.60
2022-12-01T06:49:44.043Z,1.60
2022-12-01T06:52:10.815Z,1.60
2022-12-01T06:54:37.638Z,1.60
2022-12-01T06:57:04.636Z,1.60
2022-12-01T06:59:31.733Z,1.60
2022-12-01T07:01:58.951Z,1.70
2022-12-01T07:04:25.749Z,1.60
2022-12-01T07:06:52.450Z,1.60
2022-12-01T07:09:19.262Z,1.90
2022-12-01T07:11:45.986Z,1.70
2022-12-01T07:14:22.893Z,1.60
2022-12-01T07:16:49.682Z,1.60
2022-12-01T07:19:16.462Z,1.70
2022-12-01T07:21:43.157Z,1.70
2022-12-01T07:24:10.202Z,1.70
2022-12-01T07:26:36.901Z,1.70
2022-12-01T07:29:03.945Z,1.70
2022-12-01T07:31:30.810Z,1.70
2022-12-01T07:33:57.672Z,1.80
2022-12-01T07:36:24.684Z,1.80
2022-12-01T07:38:51.434Z,1.80
2022-12-01T07:41:19.424Z,1.80
2022-12-01T07:43:47.046Z,1.80
2022-12-01T07:46:23.573Z,1.90
2022-12-01T07:48:52.102Z,1.90
2022-12-01T07:51:19.206Z,1.90
2022-12-01T07:53:47.356Z,1.90
2022-12-01T07:56:14.884Z,1.90
2022-12-01T07:58:42.262Z,1.90
2022-12-01T08:01:14.194Z,1.90
2022-12-01T08:03:41.516Z,1.90
2022-12-01T08:06:09.682Z,2.00
2022-12-01T08:08:39.164Z,2.00
2022-12-01T08:11:09.668Z,2.00
2022-12-01T08:13:36.400Z,2.00
2022-12-01T08:16:07.946Z,2.00
2022-12-01T08:18:35.812Z,2.00
2022-12-01T08:21:03.083Z,2.00
2022-12-01T08:23:29.962Z,2.00
2022-12-01T08:26:01.129Z,2.00
2022-12-01T08:28:28.185Z,2.00
2022-12-01T08:30:54.950Z,2.00
2022-12-01T08:33:21.772Z,2.10
2022-12-01T08:35:48.555Z,2.10
2022-12-01T08:38:15.813Z,2.10
2022-12-01T08:40:42.500Z,2.10
2022-12-01T08:43:15.251Z,2.10
2022-12-01T08:45:49.769Z,2.10
2022-12-01T08:48:16.412Z,2.10
2022-12-01T08:50:43.133Z,2.20
2022-12-01T08:53:10.036Z,4.10
2022-12-01T08:55:36.744Z,2.50
2022-12-01T08:58:03.489Z,2.20
2022-12-01T09:00:30.171Z,2.20
2022-12-01T09:02:56.924Z,2.20
2022-12-01T09:05:23.642Z,2.90
2022-12-01T09:08:10.361Z,2.20
2022-12-01T09:10:37.117Z,2.30
2022-12-01T09:13:03.802Z,2.30
2022-12-01T09:15:30.470Z,2.30
2022-12-01T09:17:57.253Z,2.40
2022-12-01T09:20:24.094Z,2.40
2022-12-01T09:22:50.779Z,2.40
2022-12-01T09:25:17.486Z,2.50
2022-12-01T09:27:44.159Z,2.50
2022-12-01T09:30:11.246Z,2.50
2022-12-01T09:32:37.971Z,1.60
2022-12-01T09:35:04.869Z,2.50
2022-12-01T09:37:31.661Z,2.60
2022-12-01T09:39:58.362Z,2.60
2022-12-01T09:42:32.266Z,2.60
2022-12-01T09:45:02.801Z,2.60
2022-12-01T09:47:32.271Z,2.60
2022-12-01T09:50:06.498Z,2.70
2022-12-01T09:52:45.583Z,2.70
2022-12-01T09:55:17.731Z,2.70
2022-12-01T09:57:48.522Z,2.70
2022-12-01T10:00:27.176Z,2.80
2022-12-01T10:03:09.780Z,2.90
2022-12-01T10:06:18.117Z,2.80
2022-12-01T10:08:34.895Z,2.90
2022-12-01T10:11:16.704Z,2.80
2022-12-01T10:13:43.884Z,2.80
2022-12-01T10:16:14.414Z,3.90
2022-12-01T10:19:06.447Z,2.80
2022-12-01T10:21:33.354Z,2.90
2022-12-01T10:24:08.922Z,2.90
2022-12-01T10:26:59.800Z,2.90
2022-12-01T10:29:58.694Z,2.90
2022-12-01T10:32:51.193Z,2.90
2022-12-01T10:35:23.580Z,2.80
2022-12-01T10:37:56.749Z,2.90
2022-12-01T10:40:24.087Z,2.90
2022-12-01T10:42:51.552Z,2.90
2022-12-01T10:45:30.269Z,2.90
2022-12-01T10:48:16.371Z,2.90
2022-12-01T10:50:46.309Z,2.90
2022-12-01T10:53:39.384Z,3.00
2022-12-01T10:56:20.572Z,2.90
2022-12-01T10:58:59.749Z,3.00
2022-12-01T11:01:30.973Z,2.90
2022-12-01T11:04:01.537Z,2.90
2022-12-01T11:06:30.506Z,3.00
2022-12-01T11:09:03.661Z,3.00
2022-12-01T11:11:40.364Z,3.00
2022-12-01T11:14:19.297Z,2.90
2022-12-01T11:16:49.351Z,3.00
2022-12-01T11:19:34.910Z,3.00
2022-12-01T11:22:18.675Z,3.00
2022-12-01T11:24:57.499Z,3.00
2022-12-01T11:27:26.868Z,3.00
2022-12-01T11:30:02.820Z,3.10
2022-12-01T11:32:32.396Z,3.10
2022-12-01T11:35:06.214Z,3.10
2022-12-01T11:37:38.991Z,4.30
2022-12-01T11:40:13.698Z,3.10
2022-12-01T11:42:41.398Z,3.00
2022-12-01T11:45:20.624Z,3.00
2022-12-01T11:48:00.329Z,3.00
2022-12-01T11:50:30.134Z,3.40
2022-12-01T11:52:56.955Z,3.00
2022-12-01T11:55:26.380Z,3.10
2022-12-01T11:57:55.928Z,3.10
2022-12-01T12:00:25.837Z,3.10
2022-12-01T12:03:12.542Z,3.10
2022-12-01T12:06:11.733Z,4.10
2022-12-01T12:09:11.267Z,3.10
2022-12-01T12:11:57.322Z,3.10
2022-12-01T12:14:42.158Z,3.10
2022-12-01T12:17:18.453Z,3.00
2022-12-01T12:20:08.655Z,3.10
2022-12-01T12:23:16.455Z,3.10
2022-12-01T12:26:08.622Z,3.10
2022-12-01T12:28:53.507Z,3.10
2022-12-01T12:31:44.312Z,3.10
2022-12-01T12:34:32.286Z,3.10
2022-12-01T12:37:24.559Z,3.10
2022-12-01T12:40:07.217Z,3.20
2022-12-01T12:42:46.562Z,3.20
2022-12-01T12:45:45.441Z,3.20
2022-12-01T12:48:18.302Z,3.20
2022-12-01T12:50:59.864Z,3.20
2022-12-01T12:53:34.699Z,3.20
2022-12-01T12:56:06.861Z,3.20
2022-12-01T12:58:49.478Z,3.20
2022-12-01T13:01:22.743Z,3.20
2022-12-01T13:04:01.006Z,3.20
2022-12-01T13:06:34.386Z,3.20
2022-12-01T13:09:13.891Z,3.20
2022-12-01T13:11:50.481Z,3.20
2022-12-01T13:14:29.069Z,3.10
2022-12-01T13:17:02.706Z,3.10
2022-12-01T13:19:35.183Z,3.00
2022-12-01T13:22:03.361Z,3.00
2022-12-01T13:24:31.341Z,3.00
2022-12-01T13:27:03.381Z,3.10
2022-12-01T13:29:37.501Z,3.00
2022-12-01T13:32:43.092Z,3.00
2022-12-01T13:35:27.658Z,3.10
2022-12-01T13:38:22.125Z,3.00
2022-12-01T13:40:49.703Z,3.00
2022-12-01T13:43:22.113Z,3.00
2022-12-01T13:45:49.934Z,4.40
2022-12-01T13:48:50.589Z,3.10
2022-12-01T13:51:17.421Z,3.10
2022-12-01T13:54:03.715Z,3.10
2022-12-01T13:56:45.510Z,3.10
2022-12-01T13:59:41.711Z,3.10
2022-12-01T14:02:19.128Z,3.10
2022-12-01T14:04:46.528Z,3.30
2022-12-01T14:07:34.073Z,3.10
2022-12-01T14:10:24.514Z,3.10
2022-12-01T14:12:52.461Z,3.10
2022-12-01T14:15:42.271Z,3.10
2022-12-01T14:18:18.347Z,3.10
2022-12-01T14:20:47.014Z,3.10
2022-12-01T14:23:33.869Z,3.10
2022-12-01T14:26:20.845Z,3.10
2022-12-01T14:29:28.879Z,3.10
2022-12-01T14:31:55.494Z,3.10
2022-12-01T14:34:27.000Z,3.00
2022-12-01T14:37:02.407Z,3.00
2022-12-01T14:39:33.748Z,3.00
2022-12-01T14:42:48.785Z,3.00
2022-12-01T14:45:20.590Z,3.10
2022-12-01T14:47:55.787Z,3.00
2022-12-01T14:50:57.900Z,3.00
2022-12-01T14:53:35.400Z,3.00
2022-12-01T14:56:16.285Z,3.00
2022-12-01T14:59:00.436Z,3.00
2022-12-01T15:01:36.917Z,3.00
2022-12-01T15:04:06.302Z,3.00
2022-12-01T15:06:35.262Z,3.00
2022-12-01T15:12:02.952Z,3.00
2022-12-01T15:14:38.721Z,3.90
2022-12-01T15:17:08.879Z,4.60
2022-12-01T15:19:39.293Z,3.00
2022-12-01T15:22:14.617Z,4.00
2022-12-01T15:24:42.378Z,3.00
2022-12-01T15:27:30.522Z,2.70
2022-12-01T15:30:03.307Z,4.70
2022-12-01T15:32:32.118Z,4.90
2022-12-01T15:35:04.539Z,2.10
2022-12-01T15:37:43.209Z,3.00
2022-12-01T15:43:15.342Z,3.00
2022-12-01T15:45:49.490Z,4.80
2022-12-01T15:48:24.592Z,3.00
2022-12-01T15:51:27.537Z,2.80
2022-12-01T15:54:01.047Z,3.00
2022-12-01T15:56:32.189Z,2.90
2022-12-01T15:59:14.255Z,2.90
2022-12-01T16:01:43.606Z,4.60
2022-12-01T16:04:28.624Z,2.90
2022-12-01T16:07:05.620Z,2.90
2022-12-01T16:09:41.088Z,2.90
2022-12-01T16:12:17.722Z,2.70
2022-12-01T16:14:52.323Z,2.90
2022-12-01T16:17:19.283Z,2.90
2022-12-01T16:19:46.237Z,5.00
2022-12-01T16:22:15.224Z,2.90
2022-12-01T16:24:53.863Z,2.80
2022-12-01T16:27:20.829Z,4.50
2022-12-01T16:29:52.912Z,4.70
2022-12-01T16:32:42.220Z,2.90
2022-12-01T16:35:21.236Z,2.90
2022-12-01T16:37:48.487Z,2.90
2022-12-01T16:40:16.798Z,4.80
2022-12-01T16:42:43.953Z,2.90
2022-12-01T16:45:15.177Z,3.00
2022-12-01T16:47:43.387Z,2.90
2022-12-01T16:50:15.457Z,2.90
2022-12-01T16:52:45.023Z,2.90
2022-12-01T16:55:31.904Z,2.90
2022-12-01T16:57:58.783Z,2.90
2022-12-01T17:00:26.068Z,2.60
2022-12-01T17:02:52.991Z,2.90
2022-12-01T17:05:19.912Z,2.80
2022-12-01T17:07:47.297Z,4.70
2022-12-01T17:10:14.262Z,3.30
2022-12-01T17:12:41.034Z,2.90
2022-12-01T17:15:08.505Z,2.40
2022-12-01T17:17:35.234Z,2.80
2022-12-01T17:20:02.865Z,2.40
2022-12-01T17:22:29.699Z,4.00
2022-12-01T17:24:56.646Z,4.00
2022-12-01T17:27:24.641Z,2.70
2022-12-01T17:29:51.530Z,2.80
2022-12-01T17:32:18.181Z,2.70
2022-12-01T17:34:45.158Z,2.70
2022-12-01T17:37:17.525Z,2.70
2022-12-01T17:39:47.484Z,2.70
2022-12-01T17:42:14.172Z,4.80
2022-12-01T17:44:40.857Z,2.70
2022-12-01T17:47:08.087Z,2.70
2022-12-01T17:49:36.633Z,2.70
2022-12-01T17:52:08.267Z,4.50
2022-12-01T17:54:35.018Z,2.70
2022-12-01T17:57:01.908Z,2.70
2022-12-01T17:59:28.861Z,2.70
2022-12-01T18:01:55.737Z,3.70
2022-12-01T18:04:25.582Z,2.70
2022-12-01T18:06:54.283Z,2.70
